createdAt,value
2022-10-11T00:02:17.977Z,59.49
2022-10-11T00:04:50.704Z,59.44
2022-10-11T00:07:21.212Z,59.32
2022-10-11T00:09:51.428Z,59.59
2022-10-11T00:12:21.618Z,59.39
2022-10-11T00:14:51.763Z,59.48
2022-10-11T00:17:21.901Z,59.56
2022-10-11T00:19:52.132Z,59.97
2022-10-11T00:22:22.272Z,59.75
2022-10-11T00:24:53.367Z,59.87
2022-10-11T00:27:23.510Z,59.90
2022-10-11T00:29:53.745Z,59.77
2022-10-11T00:32:23.961Z,59.92
2022-10-11T00:34:56.309Z,59.89
2022-10-11T00:37:26.558Z,60.14
2022-10-11T00:39:57.073Z,60.24
2022-10-11T00:42:27.264Z,60.19
2022-10-11T00:45:28.321Z,60.52
2022-10-11T00:48:07.678Z,60.18
2022-10-11T00:50:38.121Z,60.26
2022-10-11T00:53:11.531Z,60.19
2022-10-11T00:55:51.813Z,60.26
2022-10-11T00:58:23.840Z,59.98
2022-10-11T01:00:54.569Z,60.14
2022-10-11T01:03:27.016Z,59.97
2022-10-11T01:05:57.260Z,60.04
2022-10-11T01:08:28.039Z,60.18
2022-10-11T01:10:58.971Z,60.23
2022-10-11T01:13:52.354Z,60.86
2022-10-11T01:16:42.906Z,60.42
2022-10-11T01:19:15.658Z,60.34
2022-10-11T01:21:51.948Z,60.44
2022-10-11T01:24:42.368Z,60.55
2022-10-11T01:27:58.182Z,60.93
2022-10-11T01:30:29.065Z,61.19
2022-10-11T01:33:43.031Z,61.17
2022-10-11T01:36:31.650Z,60.41
2022-10-11T01:39:16.840Z,61.05
2022-10-11T01:41:51.353Z,60.78
2022-10-11T01:44:27.351Z,60.61
2022-10-11T01:46:57.456Z,60.60
2022-10-11T01:49:27.613Z,60.93
2022-10-11T01:52:01.248Z,60.63
2022-10-11T01:55:03.845Z,61.26
2022-10-11T01:57:39.182Z,61.39
2022-10-11T02:00:17.573Z,61.07
2022-10-11T02:03:00.426Z,61.76
2022-10-11T02:06:09.174Z,61.07
2022-10-11T02:08:55.457Z,61.56
2022-10-11T02:11:30.238Z,61.93
2022-10-11T02:14:18.602Z,62.52
2022-10-11T02:16:57.978Z,62.50
2022-10-11T02:19:33.048Z,62.36
2022-10-11T02:22:14.130Z,62.36
2022-10-11T02:24:49.562Z,63.01
2022-10-11T02:27:25.797Z,62.68
2022-10-11T02:29:59.938Z,62.38
2022-10-11T02:32:32.375Z,62.51
2022-10-11T02:35:03.811Z,62.85
2022-10-11T02:37:44.962Z,63.72
2022-10-11T02:40:27.844Z,62.95
2022-10-11T02:43:06.955Z,63.54
2022-10-11T02:45:42.271Z,63.00
2022-10-11T02:48:12.890Z,63.01
2022-10-11T02:50:43.796Z,63.21
2022-10-11T02:53:13.852Z,63.03
2022-10-11T02:55:44.070Z,63.56
2022-10-11T02:58:14.318Z,63.26
2022-10-11T03:00:44.765Z,63.03
2022-10-11T03:03:15.052Z,63.42
2022-10-11T03:05:45.379Z,63.31
2022-10-11T03:08:17.381Z,63.34
2022-10-11T03:10:47.817Z,63.29
2022-10-11T03:13:18.591Z,63.46
2022-10-11T03:16:02.828Z,63.65
2022-10-11T03:18:33.654Z,63.27
2022-10-11T03:21:03.991Z,63.25
2022-10-11T03:23:34.210Z,63.42
2022-10-11T03:26:04.681Z,63.37
2022-10-11T03:28:35.102Z,63.46
2022-10-11T03:31:05.312Z,63.54
2022-10-11T03:33:35.562Z,63.48
2022-10-11T03:36:07.292Z,63.57
2022-10-11T03:38:37.841Z,63.67
2022-10-11T03:41:08.296Z,63.63
2022-10-11T03:43:38.429Z,64.00
2022-10-11T03:46:08.907Z,63.97
2022-10-11T03:48:39.632Z,63.86
2022-10-11T03:51:09.883Z,63.85
2022-10-11T03:53:40.333Z,63.93
2022-10-11T03:56:10.842Z,63.95
2022-10-11T03:58:41.797Z,64.01
2022-10-11T04:01:12.017Z,64.11
2022-10-11T04:03:42.168Z,64.13
2022-10-11T04:06:12.258Z,64.19
2022-10-11T04:08:42.456Z,64.04
2022-10-11T04:11:12.635Z,64.07
2022-10-11T04:13:42.758Z,64.10
2022-10-11T04:16:12.922Z,64.06
2022-10-11T04:18:43.077Z,64.06
2022-10-11T04:21:13.211Z,64.03
2022-10-11T04:23:43.322Z,63.88
2022-10-11T04:26:13.451Z,64.20
2022-10-11T04:28:43.644Z,64.22
2022-10-11T04:31:14.173Z,64.24
2022-10-11T04:33:44.387Z,64.06
2022-10-11T04:36:14.508Z,64.21
2022-10-11T04:38:44.663Z,64.43
2022-10-11T04:41:15.916Z,64.68
2022-10-11T04:43:46.027Z,64.78
2022-10-11T04:46:16.232Z,64.51
2022-10-11T04:48:46.365Z,64.94
2022-10-11T04:51:17.230Z,64.77
2022-10-11T04:53:49.166Z,65.20
2022-10-11T04:56:19.266Z,65.04
2022-10-11T04:58:49.665Z,65.31
2022-10-11T05:01:20.601Z,65.23
2022-10-11T05:03:50.760Z,65.03
2022-10-11T05:06:21.207Z,65.05
2022-10-11T05:08:51.233Z,65.27
2022-10-11T05:11:21.453Z,65.29
2022-10-11T05:13:51.727Z,65.30
2022-10-11T05:16:21.852Z,65.05
2022-10-11T05:18:52.016Z,65.46
2022-10-11T05:21:28.247Z,65.55
2022-10-11T05:23:58.675Z,65.29
2022-10-11T05:26:29.098Z,65.55
2022-10-11T05:28:59.297Z,65.84
2022-10-11T05:31:29.572Z,65.74
2022-10-11T05:34:00.926Z,65.83
2022-10-11T05:36:31.117Z,66.14
2022-10-11T05:39:01.163Z,65.82
2022-10-11T05:41:31.255Z,66.07
2022-10-11T05:44:01.322Z,66.24
2022-10-11T05:46:31.513Z,66.44
2022-10-11T05:49:01.626Z,66.35
2022-10-11T05:51:31.738Z,66.31
2022-10-11T05:54:01.839Z,66.45
2022-10-11T05:56:32.011Z,66.07
2022-10-11T05:59:02.633Z,66.45
2022-10-11T06:01:33.062Z,66.42
2022-10-11T06:04:04.981Z,66.68
2022-10-11T06:06:35.053Z,66.13
2022-10-11T06:09:05.251Z,66.52
2022-10-11T06:11:35.365Z,66.42
2022-10-11T06:14:05.434Z,66.76
2022-10-11T06:16:35.521Z,66.69
2022-10-11T06:19:05.749Z,66.67
2022-10-11T06:21:35.930Z,67.12
2022-10-11T06:24:07.505Z,66.87
2022-10-11T06:26:37.656Z,67.27
2022-10-11T06:29:07.859Z,67.39
2022-10-11T06:31:38.060Z,67.01
2022-10-11T06:34:08.176Z,67.17
2022-10-11T06:36:38.278Z,67.13
2022-10-11T06:39:08.394Z,67.43
2022-10-11T06:41:38.532Z,67.12
2022-10-11T06:44:14.181Z,67.30
2022-10-11T06:46:44.581Z,67.34
2022-10-11T06:49:18.238Z,67.23
2022-10-11T06:51:51.462Z,67.23
2022-10-11T06:54:21.699Z,67.16
2022-10-11T06:56:51.984Z,67.13
2022-10-11T06:59:22.131Z,67.41
2022-10-11T07:01:52.356Z,67.79
2022-10-11T07:04:22.536Z,68.00
2022-10-11T07:06:52.666Z,67.92
2022-10-11T07:09:22.934Z,67.97
2022-10-11T07:11:53.279Z,67.88
2022-10-11T07:14:23.398Z,67.71
2022-10-11T07:16:53.456Z,67.71
2022-10-11T07:19:23.685Z,68.04
2022-10-11T07:21:53.886Z,68.15
2022-10-11T07:24:24.065Z,67.92
2022-10-11T07:26:54.283Z,68.02
2022-10-11T07:29:24.539Z,68.38
2022-10-11T07:31:54.708Z,68.46
2022-10-11T07:34:24.878Z,68.35
2022-10-11T07:36:55.026Z,68.26
2022-10-11T07:39:25.210Z,68.44
2022-10-11T07:41:55.302Z,68.70
2022-10-11T07:44:25.698Z,68.61
2022-10-11T07:46:55.852Z,68.53
2022-10-11T07:49:25.950Z,68.76
2022-10-11T07:51:56.089Z,68.57
2022-10-11T07:54:26.275Z,68.43
2022-10-11T07:56:56.514Z,68.20
2022-10-11T07:59:26.679Z,68.24
2022-10-11T08:01:56.834Z,68.30
2022-10-11T08:04:27.066Z,68.20
2022-10-11T08:06:57.211Z,67.94
2022-10-11T08:09:27.326Z,67.74
2022-10-11T08:11:57.818Z,67.61
2022-10-11T08:14:28.094Z,67.43
2022-10-11T08:16:58.267Z,66.66
2022-10-11T08:19:28.436Z,66.77
2022-10-11T08:21:58.505Z,66.38
2022-10-11T08:24:28.683Z,66.29
2022-10-11T08:26:58.909Z,66.28
2022-10-11T08:29:29.096Z,66.24
2022-10-11T08:31:59.213Z,65.88
2022-10-11T08:34:29.490Z,65.82
2022-10-11T08:36:59.733Z,65.75
2022-10-11T08:39:30.161Z,65.32
2022-10-11T08:42:11.529Z,63.59
2022-10-11T08:45:09.485Z,64.49
2022-10-11T08:47:41.234Z,63.65
2022-10-11T08:50:19.956Z,63.86
2022-10-11T08:52:59.533Z,63.19
2022-10-11T08:55:29.695Z,64.35
2022-10-11T08:58:00.038Z,64.04
2022-10-11T09:00:34.136Z,63.92
2022-10-11T09:03:36.600Z,62.71
2022-10-11T09:06:07.563Z,63.69
2022-10-11T09:08:50.359Z,62.50
2022-10-11T09:11:32.824Z,62.07
2022-10-11T09:14:05.697Z,62.29
2022-10-11T09:16:54.270Z,62.78
2022-10-11T09:20:02.283Z,59.26
2022-10-11T09:22:48.145Z,62.38
2022-10-11T09:25:18.219Z,62.29
2022-10-11T09:28:20.221Z,59.01
2022-10-11T09:30:59.068Z,59.68
2022-10-11T09:33:34.887Z,61.07
2022-10-11T09:36:34.227Z,59.27
2022-10-11T09:39:34.199Z,57.09
2022-10-11T09:42:09.381Z,60.35
2022-10-11T09:44:45.555Z,59.80
2022-10-11T09:47:20.286Z,60.19
2022-10-11T09:50:03.500Z,58.55
2022-10-11T09:52:34.442Z,59.03
2022-10-11T09:55:04.900Z,58.96
2022-10-11T09:57:39.296Z,57.90
2022-10-11T10:00:12.287Z,57.69
2022-10-11T10:02:44.918Z,58.14
2022-10-11T10:05:18.863Z,57.25
2022-10-11T10:10:59.833Z,55.03
2022-10-11T10:13:51.618Z,53.86
2022-10-11T10:16:28.627Z,57.92
2022-10-11T10:19:03.623Z,56.13
2022-10-11T10:21:40.469Z,56.42
2022-10-11T10:24:39.455Z,54.41
2022-10-11T10:27:17.176Z,56.13
2022-10-11T10:30:02.739Z,55.18
2022-10-11T10:32:43.854Z,56.88
2022-10-11T10:35:43.153Z,54.51
2022-10-11T10:38:36.591Z,56.24
2022-10-11T10:41:10.927Z,55.87
2022-10-11T10:43:43.302Z,57.60
2022-10-11T10:46:37.067Z,55.57
2022-10-11T10:49:53.142Z,55.14
2022-10-11T10:52:44.158Z,54.46
2022-10-11T10:55:33.353Z,56.56
2022-10-11T10:58:16.457Z,55.14
2022-10-11T11:00:51.093Z,57.37
2022-10-11T11:03:33.668Z,55.16
2022-10-11T11:06:12.045Z,57.45
2022-10-11T11:08:55.288Z,61.63
2022-10-11T11:11:36.162Z,65.18
2022-10-11T11:14:18.349Z,60.83
2022-10-11T11:16:51.261Z,59.07
2022-10-11T11:19:36.444Z,59.08
2022-10-11T11:22:14.422Z,58.54
2022-10-11T11:24:50.780Z,57.37
2022-10-11T11:27:32.970Z,56.85
2022-10-11T11:30:12.049Z,57.71
2022-10-11T11:33:09.524Z,58.27
2022-10-11T11:35:44.207Z,58.28
2022-10-11T11:38:29.442Z,57.60
2022-10-11T11:41:05.427Z,58.63
2022-10-11T11:43:39.957Z,58.33
2022-10-11T11:46:18.854Z,57.79
2022-10-11T11:48:52.322Z,57.97
2022-10-11T11:51:31.333Z,56.71
2022-10-11T11:54:06.353Z,55.60
2022-10-11T11:57:04.801Z,51.55
2022-10-11T11:59:43.762Z,55.24
2022-10-11T12:02:31.471Z,51.42
2022-10-11T12:05:02.258Z,54.99
2022-10-11T12:07:46.152Z,55.06
2022-10-11T12:10:36.190Z,50.86
2022-10-11T12:13:32.478Z,51.45
2022-10-11T12:16:13.677Z,51.89
2022-10-11T12:19:01.094Z,52.17
2022-10-11T12:21:41.126Z,54.10
2022-10-11T12:24:20.541Z,51.71
2022-10-11T12:26:55.970Z,51.13
2022-10-11T12:29:41.742Z,51.49
2022-10-11T12:32:34.608Z,50.97
2022-10-11T12:35:32.563Z,50.84
2022-10-11T12:38:16.776Z,49.99
2022-10-11T12:40:49.049Z,53.76
2022-10-11T12:43:19.227Z,53.79
2022-10-11T12:45:49.681Z,53.50
2022-10-11T12:48:58.416Z,50.22
2022-10-11T12:51:42.025Z,51.48
2022-10-11T12:54:26.708Z,53.53
2022-10-11T12:57:22.118Z,53.70
2022-10-11T12:59:52.445Z,53.72
2022-10-11T13:02:29.038Z,51.48
2022-10-11T13:05:45.550Z,49.61
2022-10-11T13:08:23.782Z,51.81
2022-10-11T13:10:57.604Z,52.49
2022-10-11T13:13:45.271Z,50.77
2022-10-11T13:16:18.521Z,52.75
2022-10-11T13:18:54.171Z,51.91
2022-10-11T13:21:36.226Z,50.77
2022-10-11T13:24:17.078Z,51.00
2022-10-11T13:26:50.798Z,52.55
2022-10-11T13:29:35.495Z,51.54
2022-10-11T13:32:16.451Z,51.51
2022-10-11T13:34:49.843Z,52.83
2022-10-11T13:37:22.207Z,53.14
2022-10-11T13:39:55.570Z,53.58
2022-10-11T13:42:32.189Z,52.79
2022-10-11T13:45:02.556Z,53.48
2022-10-11T13:47:33.312Z,53.67
2022-10-11T13:50:15.549Z,53.84
2022-10-11T13:53:05.437Z,53.59
2022-10-11T13:55:48.576Z,53.83
2022-10-11T13:58:25.986Z,53.92
2022-10-11T14:01:02.874Z,53.47
2022-10-11T14:03:44.254Z,53.25
2022-10-11T14:06:15.007Z,54.38
2022-10-11T14:08:49.978Z,54.65
2022-10-11T14:11:38.261Z,53.39
2022-10-11T14:14:39.528Z,53.18
2022-10-11T14:17:16.276Z,53.58
2022-10-11T14:19:48.475Z,54.30
2022-10-11T14:22:19.439Z,54.33
2022-10-11T14:24:49.721Z,54.18
2022-10-11T14:27:27.061Z,53.83
2022-10-11T14:30:20.304Z,54.31
2022-10-11T14:32:51.246Z,53.96
2022-10-11T14:35:26.535Z,54.43
2022-10-11T14:37:56.849Z,54.63
2022-10-11T14:40:30.747Z,54.66
2022-10-11T14:43:00.913Z,55.00
2022-10-11T14:45:31.205Z,55.19
2022-10-11T14:48:01.564Z,55.10
2022-10-11T14:50:48.111Z,54.03
2022-10-11T14:53:18.558Z,54.69
2022-10-11T14:55:49.213Z,54.45
2022-10-11T14:58:19.403Z,54.60
2022-10-11T15:00:49.630Z,54.66
2022-10-11T15:03:19.981Z,54.71
2022-10-11T15:05:51.827Z,54.77
2022-10-11T15:08:21.924Z,54.73
2022-10-11T15:10:52.199Z,54.93
2022-10-11T15:13:22.818Z,54.84
2022-10-11T15:15:52.995Z,54.84
2022-10-11T15:18:23.358Z,54.87
2022-10-11T15:20:55.196Z,54.96
2022-10-11T15:23:25.455Z,55.08
2022-10-11T15:25:55.681Z,54.96
2022-10-11T15:28:32.049Z,54.75
2022-10-11T15:31:02.462Z,55.09
2022-10-11T15:33:32.593Z,54.99
2022-10-11T15:36:03.328Z,55.17
2022-10-11T15:38:33.667Z,55.46
2022-10-11T15:41:03.977Z,54.97
2022-10-11T15:43:34.625Z,55.03
2022-10-11T15:46:05.492Z,55.58
2022-10-11T15:48:35.871Z,55.50
2022-10-11T15:51:06.104Z,55.53
2022-10-11T15:53:36.700Z,55.50
2022-10-11T15:56:10.214Z,55.52
2022-10-11T15:58:41.729Z,55.69
2022-10-11T16:01:16.388Z,55.55
2022-10-11T16:03:49.131Z,55.53
2022-10-11T16:06:19.791Z,55.77
2022-10-11T16:08:50.293Z,55.96
2022-10-11T16:11:23.027Z,56.23
2022-10-11T16:13:54.110Z,56.18
2022-10-11T16:16:24.395Z,56.37
2022-10-11T16:18:54.835Z,56.28
2022-10-11T16:21:25.049Z,56.61
2022-10-11T16:23:55.244Z,56.63
2022-10-11T16:26:25.403Z,56.56
2022-10-11T16:28:56.910Z,56.97
2022-10-11T16:31:27.257Z,57.13
2022-10-11T16:33:58.150Z,57.51
2022-10-11T16:36:40.843Z,57.43
2022-10-11T16:39:14.630Z,57.80
2022-10-11T16:41:45.572Z,57.83
2022-10-11T16:44:19.201Z,57.99
2022-10-11T16:46:49.390Z,57.80
2022-10-11T16:49:23.033Z,57.95
2022-10-11T16:51:55.585Z,58.21
2022-10-11T16:54:30.537Z,58.29
2022-10-11T16:57:00.961Z,58.24
2022-10-11T16:59:31.160Z,58.36
2022-10-11T17:02:01.625Z,58.38
2022-10-11T17:04:34.710Z,58.60
2022-10-11T17:07:12.349Z,58.30
2022-10-11T17:09:44.519Z,58.79
2022-10-11T17:12:17.158Z,59.00
2022-10-11T17:14:47.891Z,58.87
2022-10-11T17:17:18.974Z,58.88
2022-10-11T17:19:49.269Z,58.93
2022-10-11T17:22:20.401Z,58.72
2022-10-11T17:24:50.635Z,58.60
2022-10-11T17:27:21.105Z,58.77
2022-10-11T17:29:51.302Z,59.12
2022-10-11T17:32:21.474Z,59.19
2022-10-11T17:34:51.661Z,59.46
2022-10-11T17:37:21.772Z,59.60
2022-10-11T17:39:52.013Z,59.61
2022-10-11T17:42:22.133Z,59.76
2022-10-11T17:44:52.320Z,60.09
2022-10-11T17:47:22.484Z,60.23
2022-10-11T17:49:52.610Z,60.10
2022-10-11T17:52:22.706Z,60.01
2022-10-11T17:54:52.923Z,60.07
2022-10-11T17:57:23.093Z,60.23
2022-10-11T17:59:53.444Z,60.07
2022-10-11T18:02:23.620Z,60.06
2022-10-11T18:04:53.828Z,60.18
2022-10-11T18:07:24.442Z,60.17
2022-10-11T18:09:54.856Z,60.13
2022-10-11T18:12:26.244Z,59.57
2022-10-11T18:14:56.445Z,59.52
2022-10-11T18:17:26.696Z,59.67
2022-10-11T18:19:56.860Z,59.43
2022-10-11T18:22:27.423Z,59.40
2022-10-11T18:24:57.595Z,60.10
2022-10-11T18:27:28.435Z,60.07
2022-10-11T18:29:58.582Z,60.06
2022-10-11T18:32:28.697Z,59.72
2022-10-11T18:34:59.957Z,60.02
2022-10-11T18:37:30.417Z,59.91
2022-10-11T18:40:00.828Z,59.98
2022-10-11T18:42:30.998Z,59.90
2022-10-11T18:45:01.158Z,59.79
2022-10-11T18:47:31.275Z,59.78
2022-10-11T18:50:01.488Z,59.93
2022-10-11T18:52:32.330Z,59.94
2022-10-11T18:55:05.227Z,59.95
2022-10-11T18:57:35.336Z,60.30
2022-10-11T19:00:16.859Z,59.68
2022-10-11T19:02:56.556Z,59.70
2022-10-11T19:05:27.878Z,60.09
2022-10-11T19:07:57.959Z,60.29
2022-10-11T19:10:28.273Z,59.98
2022-10-11T19:12:58.378Z,60.01
2022-10-11T19:15:29.002Z,59.94
2022-10-11T19:17:59.318Z,60.21
2022-10-11T19:20:29.551Z,59.95
2022-10-11T19:22:59.724Z,60.05
2022-10-11T19:25:30.068Z,59.97
2022-10-11T19:28:00.227Z,59.89
2022-10-11T19:30:32.332Z,59.94
2022-10-11T19:33:04.817Z,59.88
2022-10-11T19:35:35.006Z,60.41
2022-10-11T19:38:05.097Z,60.33
2022-10-11T19:40:38.704Z,60.20
2022-10-11T19:43:08.811Z,60.07
2022-10-11T19:45:38.911Z,60.12
2022-10-11T19:48:09.084Z,60.39
2022-10-11T19:50:39.176Z,60.05
2022-10-11T19:53:09.389Z,60.04
2022-10-11T19:55:43.048Z,60.38
2022-10-11T19:58:16.430Z,60.16
2022-10-11T20:00:46.577Z,60.24
2022-10-11T20:03:16.774Z,60.23
2022-10-11T20:05:46.883Z,60.31
2022-10-11T20:08:17.037Z,60.06
2022-10-11T20:10:47.705Z,60.35
2022-10-11T20:13:17.857Z,60.26
2022-10-11T20:15:49.419Z,60.61
2022-10-11T20:18:19.526Z,60.58
2022-10-11T20:20:58.152Z,60.95
2022-10-11T20:23:28.303Z,60.39
2022-10-11T20:26:07.650Z,60.53
2022-10-11T20:28:38.581Z,60.73
2022-10-11T20:31:17.543Z,60.76
2022-10-11T20:33:49.585Z,60.62
2022-10-11T20:36:21.652Z,60.76
2022-10-11T20:38:52.656Z,60.55
2022-10-11T20:41:27.472Z,60.60
2022-10-11T20:43:59.544Z,60.61
2022-10-11T20:46:32.786Z,60.35
2022-10-11T20:49:05.795Z,60.70
2022-10-11T20:51:37.955Z,60.38
2022-10-11T20:54:08.365Z,60.43
2022-10-11T20:56:39.072Z,60.19
2022-10-11T20:59:10.419Z,60.30
2022-10-11T21:01:41.898Z,60.42
2022-10-11T21:04:18.852Z,60.53
2022-10-11T21:06:49.467Z,60.47
2022-10-11T21:09:19.677Z,60.32
2022-10-11T21:11:49.804Z,60.54
2022-10-11T21:14:19.972Z,60.47
2022-10-11T21:16:50.157Z,60.47
2022-10-11T21:19:20.428Z,60.35
2022-10-11T21:21:53.677Z,60.62
2022-10-11T21:24:24.142Z,60.39
2022-10-11T21:26:59.561Z,60.58
2022-10-11T21:29:30.758Z,60.79
2022-10-11T21:32:01.158Z,60.52
2022-10-11T21:34:31.325Z,60.32
2022-10-11T21:37:01.487Z,60.56
2022-10-11T21:39:31.749Z,60.17
2022-10-11T21:42:01.894Z,60.49
2022-10-11T21:44:32.826Z,60.54
2022-10-11T21:47:07.500Z,60.49
2022-10-11T21:49:38.051Z,60.90
2022-10-11T21:52:09.645Z,60.83
2022-10-11T21:54:39.718Z,60.93
2022-10-11T21:57:09.915Z,60.53
2022-10-11T21:59:40.072Z,60.91
2022-10-11T22:02:10.557Z,60.85
2022-10-11T22:04:40.758Z,60.89
2022-10-11T22:07:10.905Z,60.87
2022-10-11T22:09:41.081Z,60.66
2022-10-11T22:12:11.196Z,60.95
2022-10-11T22:14:41.332Z,60.75
2022-10-11T22:17:11.452Z,60.80
2022-10-11T22:19:41.518Z,60.85
2022-10-11T22:22:11.841Z,61.23
2022-10-11T22:24:41.990Z,61.43
2022-10-11T22:27:12.086Z,61.71
2022-10-11T22:29:42.383Z,61.50
2022-10-11T22:32:12.827Z,61.88
2022-10-11T22:34:43.318Z,61.98
2022-10-11T22:37:13.439Z,61.85
2022-10-11T22:39:43.604Z,62.23
2022-10-11T22:42:13.799Z,62.56
2022-10-11T22:44:43.965Z,62.43
2022-10-11T22:47:14.087Z,62.71
2022-10-11T22:49:44.199Z,62.50
2022-10-11T22:52:14.862Z,62.52
2022-10-11T22:54:45.018Z,62.73
2022-10-11T22:57:15.204Z,62.52
2022-10-11T22:59:45.260Z,62.89
2022-10-11T23:02:15.470Z,62.75
2022-10-11T23:04:45.660Z,62.81
2022-10-11T23:07:15.759Z,63.06
2022-10-11T23:09:45.869Z,62.64
2022-10-11T23:12:16.081Z,63.11
2022-10-11T23:14:46.250Z,62.98
2022-10-11T23:17:16.402Z,62.84
2022-10-11T23:19:46.952Z,62.72
2022-10-11T23:22:17.090Z,62.71
2022-10-11T23:24:47.359Z,62.49
2022-10-11T23:27:17.560Z,62.52
2022-10-11T23:29:47.677Z,62.87
2022-10-11T23:32:17.742Z,62.46
2022-10-11T23:34:47.875Z,62.81
2022-10-11T23:37:18.245Z,62.86
2022-10-11T23:39:48.491Z,62.79
2022-10-11T23:42:18.621Z,63.10
2022-10-11T23:44:48.833Z,62.77
2022-10-11T23:47:18.977Z,62.84
2022-10-11T23:49:49.140Z,63.08
2022-10-11T23:52:19.218Z,62.63
2022-10-11T23:54:49.402Z,62.75
2022-10-11T23:57:19.558Z,62.55
2022-10-11T23:59:49.601Z,62.35
